KBFD/BFD METAR and TAF weather

Enter ICAO airport designator
Station Type Date Time Source
KBFD METAR 2019/05/27 09:05 UTC NOAA

KBFD 270905Z AUTO 00000KT 1/2SM FG VV002 10/10 A3002 RMK AO2 T01000100


Station Type Date Time Source
KBFD Decoded METAR 2019/05/27 09:05 UTC NOAA

BRADFORD REGIONAL AIRPORT, PA, United States (KBFD) 41-48N 078-38W 647M
May 27, 2019 - 05:05 AM EDT / 2019.05.27 0905 UTC
Wind: Calm:0
Visibility: 1/2 mile(s):0
Sky conditions: obscured
Weather: fog
Temperature: 50.0 F (10.0 C)
Dew Point: 50.0 F (10.0 C)
Relative Humidity: 100%
Pressure (altimeter): 30.02 in. Hg (1016 hPa)
ob: KBFD 270905Z AUTO 00000KT 1/2SM FG VV002 10/10 A3002 RMK AO2 T01000100
cycle: 9

Station Type Date Time Source
KBFD TAF 2019/05/27 09:15 UTC NOAA

TAF
AMD KBFD 270911Z 2709/2806 00000KT 1/2SM FG VV002
FM271300 VRB04KT 4SM BR BKN002 OVC015
TEMPO 2713/2714 4SM BR SCT002
FM271400 35005KT P6SM SCT050

Example: see airport list